createdAt,value
2022-12-09T00:01:29.664Z,0.10
2022-12-09T00:03:56.988Z,0.40
2022-12-09T00:06:26.658Z,0.10
2022-12-09T00:08:54.723Z,0.00
2022-12-09T00:11:22.453Z,-0.10
2022-12-09T00:13:56.931Z,-0.20
2022-12-09T00:16:24.766Z,-0.20
2022-12-09T00:18:52.051Z,-0.20
2022-12-09T00:21:21.309Z,-0.30
2022-12-09T00:23:49.018Z,0.80
2022-12-09T00:26:16.413Z,-0.40
2022-12-09T00:28:43.602Z,-0.30
2022-12-09T00:31:14.454Z,-0.30
2022-12-09T00:33:41.498Z,-0.30
2022-12-09T00:36:11.135Z,-0.10
2022-12-09T00:38:38.621Z,-0.30
2022-12-09T00:41:05.717Z,-0.20
2022-12-09T00:43:33.052Z,-0.20
2022-12-09T00:45:59.947Z,-0.20
2022-12-09T00:48:27.292Z,-0.30
2022-12-09T00:50:54.429Z,-0.60
2022-12-09T00:53:21.442Z,-0.30
2022-12-09T00:55:48.389Z,-0.30
2022-12-09T00:58:15.021Z,-0.20
2022-12-09T01:00:41.951Z,-0.10
2022-12-09T01:03:13.910Z,-0.10
2022-12-09T01:05:41.823Z,-0.10
2022-12-09T01:08:09.922Z,-0.10
2022-12-09T01:10:37.927Z,-0.10
2022-12-09T01:13:04.582Z,-0.10
2022-12-09T01:15:31.303Z,-0.20
2022-12-09T01:17:57.932Z,-0.20
2022-12-09T01:20:25.176Z,-0.20
2022-12-09T01:22:51.993Z,-0.20
2022-12-09T01:25:18.905Z,-0.20
2022-12-09T01:27:45.747Z,-0.30
2022-12-09T01:30:13.989Z,-2.00
2022-12-09T01:32:41.748Z,-0.50
2022-12-09T01:35:08.888Z,-0.50
2022-12-09T01:37:36.899Z,-0.50
2022-12-09T01:40:07.429Z,-0.50
2022-12-09T01:42:34.543Z,-0.40
2022-12-09T01:45:19.875Z,-0.30
2022-12-09T01:47:56.412Z,-0.20
2022-12-09T01:50:25.287Z,0.00
2022-12-09T01:52:51.943Z,-0.20
2022-12-09T01:55:19.684Z,0.20
2022-12-09T01:57:46.670Z,0.30
2022-12-09T02:00:14.069Z,0.30
2022-12-09T02:02:43.690Z,0.40
2022-12-09T02:05:10.923Z,0.50
2022-12-09T02:07:38.248Z,0.60
2022-12-09T02:10:11.300Z,0.60
2022-12-09T02:12:56.935Z,0.70
2022-12-09T02:15:53.337Z,0.60
2022-12-09T02:18:40.912Z,0.80
2022-12-09T02:21:16.521Z,0.70
2022-12-09T02:24:00.414Z,0.70
2022-12-09T02:26:50.723Z,0.70
2022-12-09T02:29:28.288Z,0.70
2022-12-09T02:32:29.395Z,0.70
2022-12-09T02:35:05.819Z,0.70
2022-12-09T02:37:57.668Z,0.70
2022-12-09T02:40:47.982Z,0.80
2022-12-09T02:43:17.916Z,0.80
2022-12-09T02:45:45.285Z,0.80
2022-12-09T02:48:16.618Z,0.90
2022-12-09T02:50:46.392Z,0.80
2022-12-09T02:53:14.736Z,0.80
2022-12-09T02:55:44.103Z,0.80
2022-12-09T02:58:11.118Z,0.80
2022-12-09T03:00:39.477Z,0.90
2022-12-09T03:03:10.580Z,0.90
2022-12-09T03:06:01.523Z,0.90
2022-12-09T03:08:31.663Z,1.00
2022-12-09T03:11:02.936Z,1.00
2022-12-09T03:14:03.552Z,1.00
2022-12-09T03:16:35.938Z,1.00
2022-12-09T03:19:26.690Z,1.10
2022-12-09T03:21:59.829Z,1.10
2022-12-09T03:24:33.280Z,1.10
2022-12-09T03:27:03.680Z,1.10
2022-12-09T03:29:33.876Z,1.10
2022-12-09T03:32:01.384Z,1.10
2022-12-09T03:34:32.300Z,1.10
2022-12-09T03:37:01.889Z,1.10
2022-12-09T03:39:32.422Z,1.10
2022-12-09T03:42:03.767Z,2.60
2022-12-09T03:44:37.809Z,1.10
2022-12-09T03:47:06.866Z,1.10
2022-12-09T03:49:33.922Z,1.10
2022-12-09T03:52:22.734Z,1.10
2022-12-09T03:55:00.537Z,1.20
2022-12-09T03:57:29.192Z,1.20
2022-12-09T04:00:00.765Z,1.20
2022-12-09T04:02:28.307Z,1.10
2022-12-09T04:04:55.283Z,0.80
2022-12-09T04:07:22.203Z,1.30
2022-12-09T04:09:49.055Z,1.30
2022-12-09T04:12:15.791Z,1.30
2022-12-09T04:14:42.604Z,1.40
2022-12-09T04:17:11.217Z,1.30
2022-12-09T04:19:38.215Z,1.40
2022-12-09T04:22:04.844Z,1.30
2022-12-09T04:24:31.700Z,1.30
2022-12-09T04:26:58.631Z,1.30
2022-12-09T04:29:25.328Z,1.30
2022-12-09T04:31:52.119Z,1.30
2022-12-09T04:34:18.776Z,1.30
2022-12-09T04:36:45.583Z,1.30
2022-12-09T04:39:12.136Z,1.30
2022-12-09T04:41:38.951Z,1.30
2022-12-09T04:44:06.442Z,1.30
2022-12-09T04:46:33.484Z,1.30
2022-12-09T04:49:00.564Z,1.30
2022-12-09T04:51:27.355Z,1.30
2022-12-09T04:53:54.948Z,1.30
2022-12-09T04:56:23.091Z,1.30
2022-12-09T04:58:50.805Z,1.20
2022-12-09T05:01:28.225Z,1.20
2022-12-09T05:03:57.308Z,1.30
2022-12-09T05:06:24.525Z,1.30
2022-12-09T05:08:52.059Z,1.30
2022-12-09T05:11:20.547Z,1.30
2022-12-09T05:13:47.924Z,1.30
2022-12-09T05:16:17.474Z,1.00
2022-12-09T05:18:46.613Z,1.20
2022-12-09T05:21:19.327Z,1.10
2022-12-09T05:23:46.679Z,1.10
2022-12-09T05:26:16.919Z,1.00
2022-12-09T05:28:44.327Z,0.90
2022-12-09T05:31:19.727Z,0.80
2022-12-09T05:33:48.802Z,0.70
2022-12-09T05:36:17.865Z,0.70
2022-12-09T05:38:45.045Z,0.60
2022-12-09T05:41:12.168Z,0.60
2022-12-09T05:43:39.082Z,0.60
2022-12-09T05:46:06.720Z,0.50
2022-12-09T05:48:34.494Z,0.50
2022-12-09T05:51:05.939Z,0.40
2022-12-09T05:53:33.460Z,0.50
2022-12-09T05:56:00.875Z,0.20
2022-12-09T05:58:27.787Z,0.20
2022-12-09T06:00:58.004Z,0.20
2022-12-09T06:03:25.406Z,0.20
2022-12-09T06:05:52.487Z,0.30
2022-12-09T06:08:19.607Z,0.40
2022-12-09T06:10:46.431Z,0.40
2022-12-09T06:13:13.950Z,0.40
2022-12-09T06:15:40.976Z,0.40
2022-12-09T06:18:08.141Z,0.40
2022-12-09T06:20:34.912Z,0.30
2022-12-09T06:23:01.891Z,0.30
2022-12-09T06:25:28.594Z,0.10
2022-12-09T06:27:55.220Z,-1.50
2022-12-09T06:30:21.790Z,0.10
2022-12-09T06:32:49.164Z,0.60
2022-12-09T06:35:16.786Z,0.20
2022-12-09T06:37:43.722Z,0.10
2022-12-09T06:40:11.174Z,0.20
2022-12-09T06:42:38.341Z,0.20
2022-12-09T06:45:06.538Z,0.30
2022-12-09T06:47:33.855Z,0.30
2022-12-09T06:50:06.610Z,0.40
2022-12-09T06:52:34.329Z,0.40
2022-12-09T06:55:01.455Z,0.50
2022-12-09T06:57:28.173Z,0.60
2022-12-09T06:59:55.620Z,0.60
2022-12-09T07:02:22.822Z,0.70
2022-12-09T07:04:54.304Z,0.70
2022-12-09T07:07:21.898Z,0.80
2022-12-09T07:09:49.420Z,0.80
2022-12-09T07:12:16.552Z,0.80
2022-12-09T07:14:43.252Z,0.80
2022-12-09T07:17:19.405Z,0.90
2022-12-09T07:19:47.312Z,1.00
2022-12-09T07:22:14.649Z,0.80
2022-12-09T07:24:41.965Z,1.10
2022-12-09T07:27:15.777Z,1.10
2022-12-09T07:29:45.806Z,1.20
2022-12-09T07:32:12.574Z,1.30
2022-12-09T07:34:39.733Z,1.20
2022-12-09T07:37:06.603Z,1.20
2022-12-09T07:39:33.582Z,1.30
2022-12-09T07:42:00.350Z,1.30
2022-12-09T07:44:30.444Z,1.30
2022-12-09T07:46:57.507Z,1.40
2022-12-09T07:49:24.900Z,1.30
2022-12-09T07:51:52.166Z,1.40
2022-12-09T07:54:20.521Z,1.40
2022-12-09T07:56:47.833Z,1.40
2022-12-09T07:59:15.510Z,1.30
2022-12-09T08:01:42.949Z,1.40
2022-12-09T08:04:10.232Z,2.70
2022-12-09T08:06:38.012Z,1.50
2022-12-09T08:09:10.519Z,1.40
2022-12-09T08:11:37.835Z,1.50
2022-12-09T08:14:12.173Z,1.50
2022-12-09T08:16:40.575Z,1.50
2022-12-09T08:19:08.042Z,1.50
2022-12-09T08:21:35.308Z,1.50
2022-12-09T08:24:06.028Z,1.50
2022-12-09T08:26:34.088Z,1.50
2022-12-09T08:29:01.346Z,1.50
2022-12-09T08:31:29.147Z,1.60
2022-12-09T08:33:56.830Z,1.50
2022-12-09T08:36:26.429Z,1.50
2022-12-09T08:38:53.836Z,1.50
2022-12-09T08:41:35.373Z,1.50
2022-12-09T08:44:12.174Z,1.50
2022-12-09T08:46:41.012Z,1.40
2022-12-09T08:49:09.156Z,1.40
2022-12-09T08:51:36.836Z,1.40
2022-12-09T08:54:05.309Z,1.50
2022-12-09T08:56:33.704Z,1.50
2022-12-09T08:59:00.639Z,1.50
2022-12-09T09:01:38.095Z,1.50
2022-12-09T09:04:08.735Z,1.60
2022-12-09T09:06:37.895Z,1.50
2022-12-09T09:09:06.840Z,1.50
2022-12-09T09:11:34.392Z,1.50
2022-12-09T09:14:04.159Z,1.50
2022-12-09T09:16:31.372Z,1.40
2022-12-09T09:18:58.287Z,1.50
2022-12-09T09:21:26.949Z,1.50
2022-12-09T09:23:54.081Z,1.60
2022-12-09T09:26:23.856Z,1.60
2022-12-09T09:28:51.647Z,1.70
2022-12-09T09:31:20.461Z,1.70
2022-12-09T09:33:47.995Z,1.70
2022-12-09T09:36:18.895Z,1.70
2022-12-09T09:38:45.915Z,1.70
2022-12-09T09:41:41.853Z,1.70
2022-12-09T09:44:39.527Z,1.70
2022-12-09T09:47:28.574Z,1.70
2022-12-09T09:50:18.960Z,1.70
2022-12-09T09:52:46.015Z,1.80
2022-12-09T09:55:18.348Z,1.80
2022-12-09T09:58:20.831Z,1.70
2022-12-09T10:00:58.306Z,1.60
2022-12-09T10:03:56.344Z,1.50
2022-12-09T10:06:31.481Z,1.50
2022-12-09T10:09:05.077Z,1.30
2022-12-09T10:11:56.394Z,1.20
2022-12-09T10:14:35.161Z,1.10
2022-12-09T10:17:24.059Z,1.30
2022-12-09T10:19:55.541Z,1.50
2022-12-09T10:22:27.105Z,1.60
2022-12-09T10:24:57.139Z,1.50
2022-12-09T10:27:27.163Z,1.80
2022-12-09T10:30:00.863Z,1.90
2022-12-09T10:32:31.576Z,1.90
2022-12-09T10:34:59.268Z,2.00
2022-12-09T10:37:35.221Z,2.10
2022-12-09T10:40:06.510Z,2.20
2022-12-09T10:43:05.022Z,2.20
2022-12-09T10:46:00.181Z,2.20
2022-12-09T10:48:33.476Z,2.10
2022-12-09T10:51:22.223Z,2.20
2022-12-09T10:54:06.956Z,2.10
2022-12-09T10:56:39.386Z,2.10
2022-12-09T10:59:27.240Z,2.20
2022-12-09T11:01:59.970Z,2.00
2022-12-09T11:04:43.157Z,2.00
2022-12-09T11:07:13.338Z,2.20
2022-12-09T11:09:58.830Z,2.00
2022-12-09T11:12:32.127Z,2.10
2022-12-09T11:15:30.478Z,2.10
2022-12-09T11:18:06.984Z,2.00
2022-12-09T11:20:34.866Z,2.10
2022-12-09T11:23:17.120Z,2.10
2022-12-09T11:26:00.261Z,2.10
2022-12-09T11:28:30.378Z,2.20
2022-12-09T11:31:29.080Z,2.20
2022-12-09T11:34:27.198Z,2.30
2022-12-09T11:36:57.757Z,2.30
2022-12-09T11:39:28.825Z,2.20
2022-12-09T11:42:17.184Z,2.10
2022-12-09T11:45:06.541Z,2.00
2022-12-09T11:48:13.591Z,2.00
2022-12-09T11:50:32.187Z,2.10
2022-12-09T11:53:24.993Z,2.10
2022-12-09T11:56:13.751Z,2.00
2022-12-09T11:58:49.717Z,2.00
2022-12-09T12:01:27.668Z,1.90
2022-12-09T12:03:57.716Z,1.90
2022-12-09T12:06:29.141Z,1.90
2022-12-09T12:09:11.586Z,1.90
2022-12-09T12:11:55.186Z,1.90
2022-12-09T12:14:26.727Z,1.90
2022-12-09T12:17:09.671Z,1.80
2022-12-09T12:19:40.883Z,1.70
2022-12-09T12:22:47.007Z,1.80
2022-12-09T12:25:40.722Z,1.50
2022-12-09T12:28:22.689Z,1.50
2022-12-09T12:31:01.643Z,3.20
2022-12-09T12:34:22.815Z,1.40
2022-12-09T12:36:57.212Z,1.50
2022-12-09T12:39:44.736Z,1.70
2022-12-09T12:43:04.994Z,1.80
2022-12-09T12:46:02.438Z,1.90
2022-12-09T12:48:57.611Z,1.80
2022-12-09T12:51:35.123Z,1.90
2022-12-09T12:54:17.168Z,2.00
2022-12-09T12:57:00.905Z,1.90
2022-12-09T12:59:57.741Z,2.00
2022-12-09T13:02:41.276Z,2.00
2022-12-09T13:05:25.970Z,1.90
2022-12-09T13:08:07.835Z,2.00
2022-12-09T13:10:41.972Z,1.90
2022-12-09T13:13:36.493Z,1.90
2022-12-09T13:16:18.056Z,1.80
2022-12-09T13:18:44.972Z,1.80
2022-12-09T13:21:12.497Z,1.80
2022-12-09T13:24:01.876Z,1.70
2022-12-09T13:26:44.518Z,1.70
2022-12-09T13:29:36.021Z,1.50
2022-12-09T13:32:40.447Z,1.40
2022-12-09T13:35:14.226Z,1.40
2022-12-09T13:37:43.552Z,1.40
2022-12-09T13:40:32.416Z,1.40
2022-12-09T13:43:01.700Z,1.40
2022-12-09T13:45:47.701Z,1.40
2022-12-09T13:48:17.219Z,1.30
2022-12-09T13:50:57.275Z,1.20
2022-12-09T13:53:29.431Z,1.00
2022-12-09T13:56:05.435Z,1.10
2022-12-09T13:58:37.742Z,1.10
2022-12-09T14:01:13.391Z,1.10
2022-12-09T14:03:58.062Z,0.80
2022-12-09T14:06:38.869Z,1.10
2022-12-09T14:09:30.255Z,0.80
2022-12-09T14:12:00.354Z,0.80
2022-12-09T14:14:26.840Z,0.60
2022-12-09T14:16:55.262Z,0.60
2022-12-09T14:19:24.789Z,0.50
2022-12-09T14:22:22.905Z,0.40
2022-12-09T14:24:54.252Z,0.40
2022-12-09T14:27:29.475Z,0.40
2022-12-09T14:29:57.104Z,0.40
2022-12-09T14:32:52.750Z,0.30
2022-12-09T14:35:41.815Z,0.30
2022-12-09T14:38:32.631Z,0.30
2022-12-09T14:41:18.202Z,0.30
2022-12-09T14:43:50.638Z,0.30
2022-12-09T14:46:33.685Z,0.20
2022-12-09T14:49:13.519Z,0.20
2022-12-09T14:51:50.109Z,0.20
2022-12-09T14:54:33.285Z,0.10
2022-12-09T14:57:03.615Z,0.00
2022-12-09T14:59:31.930Z,-0.30
2022-12-09T15:02:03.496Z,-0.10
2022-12-09T15:04:42.053Z,-0.10
2022-12-09T15:07:25.046Z,-0.10
2022-12-09T15:10:30.806Z,-0.10
2022-12-09T15:13:00.206Z,-0.10
2022-12-09T15:15:39.473Z,-0.20
2022-12-09T15:18:20.806Z,-0.30
2022-12-09T15:20:56.543Z,-0.20
2022-12-09T15:23:30.356Z,-0.20
2022-12-09T15:26:00.518Z,-0.20
2022-12-09T15:28:32.374Z,-0.20
2022-12-09T15:31:02.026Z,-0.10
2022-12-09T15:33:31.340Z,-0.10
2022-12-09T15:36:08.746Z,-0.10
2022-12-09T15:38:43.993Z,-0.20
2022-12-09T15:41:29.465Z,0.10
2022-12-09T15:44:00.498Z,-0.20
2022-12-09T15:46:28.231Z,-0.20
2022-12-09T15:48:58.512Z,-0.20
2022-12-09T15:51:26.764Z,-0.20
2022-12-09T15:53:58.417Z,-0.10
2022-12-09T15:56:46.941Z,-0.10
2022-12-09T15:59:33.801Z,0.00
2022-12-09T16:02:01.140Z,-0.10
2022-12-09T16:04:36.628Z,0.00
2022-12-09T16:07:08.466Z,0.00
2022-12-09T16:09:35.564Z,0.00
2022-12-09T16:12:02.233Z,0.00
2022-12-09T16:14:44.264Z,0.00
2022-12-09T16:17:21.526Z,-0.10
2022-12-09T16:19:48.430Z,-0.10
2022-12-09T16:22:14.937Z,-0.10
2022-12-09T16:25:16.615Z,-0.10
2022-12-09T16:27:48.361Z,-0.10
2022-12-09T16:30:21.355Z,0.00
2022-12-09T16:32:51.772Z,-0.20
2022-12-09T16:35:40.220Z,-0.20
2022-12-09T16:38:16.044Z,-0.10
2022-12-09T16:40:45.393Z,-0.20
2022-12-09T16:43:17.828Z,-0.20
2022-12-09T16:45:49.362Z,-0.20
2022-12-09T16:48:17.315Z,-0.20
2022-12-09T16:50:49.150Z,-0.20
2022-12-09T16:53:22.124Z,-0.20
2022-12-09T16:55:52.084Z,-0.10
2022-12-09T16:58:19.223Z,0.00
2022-12-09T17:00:46.768Z,0.20
2022-12-09T17:03:26.425Z,-0.10
2022-12-09T17:05:52.967Z,0.00
2022-12-09T17:08:19.617Z,0.30
2022-12-09T17:10:46.340Z,0.10
2022-12-09T17:13:12.943Z,0.00
2022-12-09T17:15:42.571Z,0.00
2022-12-09T17:18:10.594Z,-0.20
2022-12-09T17:20:38.233Z,-0.10
2022-12-09T17:23:05.327Z,-0.20
2022-12-09T17:25:33.253Z,-0.20
2022-12-09T17:28:04.963Z,-0.20
2022-12-09T17:30:31.522Z,-0.10
2022-12-09T17:33:00.942Z,-0.20
2022-12-09T17:35:27.544Z,-0.20
2022-12-09T17:37:54.194Z,-0.80
2022-12-09T17:40:20.804Z,-0.20
2022-12-09T17:42:47.406Z,-0.30
2022-12-09T17:45:13.947Z,-0.30
2022-12-09T17:47:40.543Z,-0.30
2022-12-09T17:50:07.668Z,-0.40
2022-12-09T17:52:34.610Z,-0.50
2022-12-09T17:55:01.238Z,-0.50
2022-12-09T17:57:27.854Z,-0.60
2022-12-09T17:59:54.387Z,-0.60
2022-12-09T18:02:21.092Z,-0.60
2022-12-09T18:04:47.690Z,-0.60
2022-12-09T18:07:14.290Z,-0.70
2022-12-09T18:09:40.863Z,-0.60
2022-12-09T18:12:07.519Z,-0.60
2022-12-09T18:14:34.122Z,-0.60
2022-12-09T18:17:01.291Z,-0.60
2022-12-09T18:19:29.843Z,-0.60
2022-12-09T18:21:56.712Z,-0.50
2022-12-09T18:24:23.627Z,-0.50
2022-12-09T18:26:50.276Z,-0.50
2022-12-09T18:29:16.837Z,-0.50
2022-12-09T18:31:45.636Z,-0.50
2022-12-09T18:34:12.581Z,-0.50
2022-12-09T18:36:39.235Z,-0.50
2022-12-09T18:39:05.966Z,-0.60
2022-12-09T18:41:33.222Z,-0.50
2022-12-09T18:44:07.320Z,-0.50
2022-12-09T18:46:39.326Z,-0.50
2022-12-09T18:49:21.545Z,-0.50
2022-12-09T18:51:50.067Z,-0.50
2022-12-09T18:54:19.804Z,-0.50
2022-12-09T18:56:46.854Z,-0.50
2022-12-09T18:59:13.671Z,-0.50
2022-12-09T19:01:42.839Z,-0.50
2022-12-09T19:04:18.626Z,-0.50
2022-12-09T19:06:47.726Z,-0.70
2022-12-09T19:09:17.501Z,-0.60
2022-12-09T19:11:46.066Z,-0.60
2022-12-09T19:14:14.148Z,-0.60
2022-12-09T19:16:41.111Z,-0.70
2022-12-09T19:19:10.497Z,-0.80
2022-12-09T19:21:37.667Z,-0.90
2022-12-09T19:24:04.932Z,-1.00
2022-12-09T19:26:33.872Z,-1.00
2022-12-09T19:29:03.682Z,-1.00
2022-12-09T19:31:33.341Z,-0.90
2022-12-09T19:34:02.417Z,-0.80
2022-12-09T19:36:30.567Z,-0.80
2022-12-09T19:39:01.439Z,-0.50
2022-12-09T19:41:28.073Z,-0.70
2022-12-09T19:43:55.870Z,-0.70
2022-12-09T19:46:23.259Z,-0.70
2022-12-09T19:48:49.995Z,-0.70
2022-12-09T19:51:19.105Z,-0.70
2022-12-09T19:53:46.500Z,-0.60
2022-12-09T19:56:18.309Z,-0.60
2022-12-09T19:58:45.906Z,-1.00
2022-12-09T20:01:25.278Z,-0.60
2022-12-09T20:04:08.814Z,-0.60
2022-12-09T20:06:46.804Z,-0.60
2022-12-09T20:09:17.472Z,-0.50
2022-12-09T20:11:44.226Z,-0.70
2022-12-09T20:14:13.099Z,-0.60
2022-12-09T20:16:40.091Z,-0.60
2022-12-09T20:19:07.374Z,-0.60
2022-12-09T20:21:35.190Z,-1.00
2022-12-09T20:24:02.720Z,-0.60
2022-12-09T20:26:32.086Z,-0.60
2022-12-09T20:29:02.439Z,-0.60
2022-12-09T20:31:31.538Z,-0.70
2022-12-09T20:34:04.507Z,-0.50
2022-12-09T20:36:33.012Z,-0.50
2022-12-09T20:39:02.210Z,-0.50
2022-12-09T20:41:29.623Z,-0.50
2022-12-09T20:43:58.716Z,-0.50
2022-12-09T20:46:28.578Z,-0.60
2022-12-09T20:48:56.174Z,-0.50
2022-12-09T20:51:26.546Z,-0.40
2022-12-09T20:53:54.561Z,-0.50
2022-12-09T20:56:22.310Z,-0.50
2022-12-09T20:58:51.076Z,-0.40
2022-12-09T21:01:23.489Z,-0.40
2022-12-09T21:03:50.932Z,-0.40
2022-12-09T21:06:21.011Z,-0.40
2022-12-09T21:08:47.736Z,-0.30
2022-12-09T21:11:22.716Z,-0.40
2022-12-09T21:13:51.939Z,-0.30
2022-12-09T21:16:25.358Z,-0.30
2022-12-09T21:18:54.314Z,-0.50
2022-12-09T21:21:23.240Z,-0.40
2022-12-09T21:23:54.036Z,-0.40
2022-12-09T21:26:23.443Z,-0.40
2022-12-09T21:28:51.199Z,-0.30
2022-12-09T21:31:23.846Z,-0.30
2022-12-09T21:33:52.346Z,-0.30
2022-12-09T21:36:21.543Z,-0.30
2022-12-09T21:38:48.174Z,-0.30
2022-12-09T21:41:18.517Z,0.10
2022-12-09T21:43:45.663Z,-0.20
2022-12-09T21:46:15.624Z,-0.20
2022-12-09T21:48:42.346Z,-0.20
2022-12-09T21:51:11.303Z,-0.10
2022-12-09T21:53:38.170Z,-0.20
2022-12-09T21:56:07.065Z,-0.20
2022-12-09T21:58:34.054Z,-0.30
2022-12-09T22:01:07.418Z,-0.30
2022-12-09T22:03:34.008Z,-0.30
2022-12-09T22:06:00.860Z,-0.30
2022-12-09T22:08:27.830Z,-0.30
2022-12-09T22:10:54.421Z,-0.40
2022-12-09T22:13:22.624Z,-0.40
2022-12-09T22:15:50.515Z,-0.40
2022-12-09T22:18:17.618Z,-0.40
2022-12-09T22:21:15.883Z,-0.50
2022-12-09T22:23:30.883Z,-0.40
2022-12-09T22:25:57.414Z,-0.50
2022-12-09T22:28:23.990Z,-0.40
2022-12-09T22:30:50.627Z,-0.60
2022-12-09T22:33:17.207Z,-0.70
2022-12-09T22:35:43.775Z,-0.60
2022-12-09T22:38:14.441Z,-0.80
2022-12-09T22:40:41.790Z,-0.70
2022-12-09T22:43:08.429Z,-0.70
2022-12-09T22:45:35.894Z,-0.70
2022-12-09T22:48:02.758Z,-0.70
2022-12-09T22:50:29.398Z,-0.70
2022-12-09T22:52:56.119Z,-0.70
2022-12-09T22:55:22.915Z,-0.80
2022-12-09T22:57:49.744Z,-1.10
2022-12-09T23:00:17.475Z,-0.80
2022-12-09T23:02:44.134Z,-0.80
2022-12-09T23:05:10.779Z,-0.80
2022-12-09T23:07:37.373Z,-0.70
2022-12-09T23:10:04.637Z,-0.70
2022-12-09T23:12:31.180Z,-0.80
2022-12-09T23:14:57.773Z,-0.80
2022-12-09T23:17:24.316Z,-0.80
2022-12-09T23:19:50.974Z,-0.80
2022-12-09T23:22:17.513Z,-0.80
2022-12-09T23:24:44.123Z,-0.80
2022-12-09T23:27:10.699Z,-0.80
2022-12-09T23:29:38.247Z,-0.80
2022-12-09T23:32:04.906Z,-0.90
2022-12-09T23:34:31.455Z,-0.80
2022-12-09T23:36:58.466Z,-0.80
2022-12-09T23:39:25.042Z,-0.90
2022-12-09T23:41:51.577Z,-0.80
2022-12-09T23:44:19.239Z,-0.80
2022-12-09T23:46:46.271Z,-0.80
2022-12-09T23:49:12.953Z,-0.60
2022-12-09T23:51:43.645Z,-0.80
2022-12-09T23:54:11.780Z,-0.80
2022-12-09T23:56:39.888Z,-0.90
2022-12-09T23:59:08.605Z,-0.90
